createdAt,value
2023-09-07T00:00:13.468Z,45.35
2023-09-07T00:02:15.908Z,45.42
2023-09-07T00:04:18.533Z,45.42
2023-09-07T00:06:21.255Z,45.54
2023-09-07T00:08:23.670Z,45.66
2023-09-07T00:10:27.469Z,45.81
2023-09-07T00:12:29.762Z,45.82
2023-09-07T00:14:32.294Z,45.67
2023-09-07T00:16:39.614Z,46.14
2023-09-07T00:18:42.132Z,46.22
2023-09-07T00:20:44.673Z,46.48
2023-09-07T00:22:47.116Z,46.57
2023-09-07T00:24:49.485Z,46.04
2023-09-07T00:26:51.843Z,47.02
2023-09-07T00:28:54.499Z,47.09
2023-09-07T00:30:56.933Z,48.24
2023-09-07T00:32:59.370Z,48.39
2023-09-07T00:35:02.050Z,48.11
2023-09-07T00:37:04.808Z,48.11
2023-09-07T00:39:07.212Z,47.70
2023-09-07T00:41:09.720Z,48.09
2023-09-07T00:43:12.606Z,47.84
2023-09-07T00:45:15.310Z,47.85
2023-09-07T00:47:18.462Z,47.39
2023-09-07T00:49:21.240Z,47.59
2023-09-07T00:51:24.074Z,47.39
2023-09-07T00:53:28.393Z,47.47
2023-09-07T00:55:34.494Z,47.49
2023-09-07T00:57:38.380Z,47.58
2023-09-07T00:59:40.984Z,47.01
2023-09-07T01:01:44.670Z,47.05
2023-09-07T01:03:47.617Z,47.51
2023-09-07T01:05:53.212Z,47.02
2023-09-07T01:08:28.176Z,47.26
2023-09-07T01:10:30.690Z,47.24
2023-09-07T01:12:33.382Z,47.07
2023-09-07T01:14:35.795Z,47.18
2023-09-07T01:16:41.811Z,47.28
2023-09-07T01:18:44.679Z,47.46
2023-09-07T01:20:50.154Z,47.19
2023-09-07T01:22:52.976Z,47.79
2023-09-07T01:24:57.196Z,46.95
2023-09-07T01:27:00.718Z,46.97
2023-09-07T01:29:03.514Z,47.36
2023-09-07T01:31:07.532Z,47.06
2023-09-07T01:33:10.270Z,47.00
2023-09-07T01:35:14.553Z,47.22
2023-09-07T01:37:17.189Z,47.12
2023-09-07T01:39:19.565Z,47.20
2023-09-07T01:41:22.255Z,47.97
2023-09-07T01:43:24.709Z,47.49
2023-09-07T01:45:27.601Z,47.84
2023-09-07T01:47:30.238Z,48.33
2023-09-07T01:49:32.994Z,49.26
2023-09-07T01:51:36.227Z,49.54
2023-09-07T01:53:38.691Z,49.51
2023-09-07T01:55:41.107Z,49.78
2023-09-07T01:57:43.919Z,50.03
2023-09-07T01:59:46.388Z,49.10
2023-09-07T02:01:48.964Z,49.31
2023-09-07T02:03:51.435Z,49.02
2023-09-07T02:05:55.282Z,48.61
2023-09-07T02:07:57.819Z,48.89
2023-09-07T02:10:00.458Z,48.76
2023-09-07T02:12:05.459Z,48.50
2023-09-07T02:14:08.207Z,48.79
2023-09-07T02:16:10.925Z,48.81
2023-09-07T02:18:13.491Z,48.54
2023-09-07T02:20:16.217Z,48.40
2023-09-07T02:22:18.639Z,48.17
2023-09-07T02:24:21.208Z,48.08
2023-09-07T02:26:23.868Z,48.10
2023-09-07T02:28:26.944Z,48.77
2023-09-07T02:30:30.133Z,48.68
2023-09-07T02:32:35.135Z,48.67
2023-09-07T02:34:37.765Z,48.75
2023-09-07T02:36:40.477Z,48.79
2023-09-07T02:38:42.938Z,48.85
2023-09-07T02:40:45.726Z,48.63
2023-09-07T02:42:49.312Z,48.97
2023-09-07T02:44:51.805Z,48.79
2023-09-07T02:46:54.208Z,49.03
2023-09-07T02:48:59.061Z,48.85
2023-09-07T02:51:02.510Z,49.01
2023-09-07T02:53:05.841Z,49.25
2023-09-07T02:55:09.216Z,49.33
2023-09-07T02:57:12.409Z,49.21
2023-09-07T02:59:15.343Z,49.64
2023-09-07T03:01:22.303Z,49.41
2023-09-07T03:03:26.253Z,49.16
2023-09-07T03:05:29.785Z,49.10
2023-09-07T03:07:35.476Z,49.55
2023-09-07T03:09:39.196Z,49.44
2023-09-07T03:11:42.283Z,49.40
2023-09-07T03:13:45.473Z,49.64
2023-09-07T03:15:48.761Z,49.52
2023-09-07T03:17:51.513Z,49.49
2023-09-07T03:19:53.918Z,49.57
2023-09-07T03:21:56.674Z,49.90
2023-09-07T03:23:59.473Z,50.13
2023-09-07T03:26:02.566Z,50.29
2023-09-07T03:28:05.936Z,50.47
2023-09-07T03:30:11.471Z,50.33
2023-09-07T03:32:14.788Z,49.98
2023-09-07T03:34:17.464Z,50.34
2023-09-07T03:36:19.986Z,50.21
2023-09-07T03:38:22.927Z,49.91
2023-09-07T03:40:25.482Z,50.09
2023-09-07T03:42:28.038Z,49.82
2023-09-07T03:44:30.591Z,49.79
2023-09-07T03:46:33.144Z,50.44
2023-09-07T03:48:37.552Z,50.25
2023-09-07T03:50:41.635Z,50.50
2023-09-07T03:52:44.311Z,50.66
2023-09-07T03:54:47.027Z,50.75
2023-09-07T03:56:49.414Z,51.11
2023-09-07T03:58:51.820Z,50.61
2023-09-07T04:00:54.466Z,50.23
2023-09-07T04:02:57.867Z,50.79
2023-09-07T04:05:03.017Z,50.46
2023-09-07T04:07:07.155Z,50.91
2023-09-07T04:09:09.506Z,50.55
2023-09-07T04:11:11.905Z,50.63
2023-09-07T04:13:14.325Z,51.05
2023-09-07T04:15:17.128Z,51.05
2023-09-07T04:17:20.180Z,51.44
2023-09-07T04:19:22.714Z,51.50
2023-09-07T04:21:25.269Z,52.01
2023-09-07T04:23:28.217Z,51.65
2023-09-07T04:25:30.783Z,51.85
2023-09-07T04:27:34.883Z,51.80
2023-09-07T04:29:39.119Z,52.54
2023-09-07T04:31:41.625Z,52.09
2023-09-07T04:33:44.207Z,52.38
2023-09-07T04:35:46.769Z,52.41
2023-09-07T04:37:49.237Z,53.10
2023-09-07T04:39:55.153Z,52.70
2023-09-07T04:41:59.250Z,52.32
2023-09-07T04:44:01.809Z,52.85
2023-09-07T04:46:04.846Z,52.48
2023-09-07T04:48:07.509Z,52.81
2023-09-07T04:50:10.516Z,52.17
2023-09-07T04:52:13.029Z,52.51
2023-09-07T04:54:17.540Z,51.92
2023-09-07T04:56:20.740Z,51.86
2023-09-07T04:58:23.160Z,51.79
2023-09-07T05:00:25.954Z,52.35
2023-09-07T05:02:28.424Z,52.40
2023-09-07T05:04:31.990Z,52.33
2023-09-07T05:06:38.277Z,52.55
2023-09-07T05:08:42.120Z,52.65
2023-09-07T05:10:44.648Z,53.08
2023-09-07T05:12:48.405Z,52.71
2023-09-07T05:14:50.828Z,52.47
2023-09-07T05:16:54.212Z,53.20
2023-09-07T05:18:56.823Z,52.46
2023-09-07T05:20:59.807Z,52.32
2023-09-07T05:23:02.595Z,52.38
2023-09-07T05:25:05.595Z,52.36
2023-09-07T05:27:08.170Z,52.13
2023-09-07T05:29:13.013Z,52.46
2023-09-07T05:31:16.975Z,52.17
2023-09-07T05:33:20.339Z,52.12
2023-09-07T05:35:22.954Z,52.08
2023-09-07T05:37:25.577Z,51.97
2023-09-07T05:39:28.084Z,52.13
2023-09-07T05:41:30.636Z,52.32
2023-09-07T05:43:33.070Z,51.68
2023-09-07T05:45:38.150Z,51.64
2023-09-07T05:47:42.043Z,51.23
2023-09-07T05:49:44.635Z,50.99
2023-09-07T05:51:47.154Z,51.01
2023-09-07T05:53:49.828Z,51.03
2023-09-07T05:55:52.579Z,51.00
2023-09-07T05:57:58.846Z,50.33
2023-09-07T06:00:04.148Z,50.50
2023-09-07T06:02:15.793Z,49.94
2023-09-07T06:04:18.454Z,49.42
2023-09-07T06:06:21.152Z,49.25
2023-09-07T06:08:23.920Z,49.96
2023-09-07T06:10:26.459Z,49.82
2023-09-07T06:12:28.929Z,49.49
2023-09-07T06:14:31.450Z,49.49
2023-09-07T06:16:34.121Z,49.12
2023-09-07T06:18:36.881Z,48.91
2023-09-07T06:20:39.454Z,48.48
2023-09-07T06:22:43.041Z,46.12
2023-09-07T06:24:45.610Z,46.62
2023-09-07T06:26:49.726Z,46.58
2023-09-07T06:28:52.546Z,46.86
2023-09-07T06:30:55.082Z,46.20
2023-09-07T06:32:58.743Z,45.67
2023-09-07T06:35:02.464Z,45.85
2023-09-07T06:37:05.910Z,45.66
2023-09-07T06:39:08.432Z,45.29
2023-09-07T06:41:10.953Z,43.95
2023-09-07T06:43:14.250Z,44.37
2023-09-07T06:45:18.508Z,44.06
2023-09-07T06:47:20.989Z,43.85
2023-09-07T06:49:24.041Z,43.84
2023-09-07T06:51:26.562Z,43.93
2023-09-07T06:53:44.471Z,43.78
2023-09-07T06:56:01.944Z,42.34
2023-09-07T06:58:05.372Z,43.47
2023-09-07T07:00:08.802Z,43.04
2023-09-07T07:02:12.852Z,42.80
2023-09-07T07:04:15.468Z,43.42
2023-09-07T07:06:18.050Z,43.36
2023-09-07T07:08:20.763Z,42.61
2023-09-07T07:10:23.247Z,41.80
2023-09-07T07:12:26.256Z,41.68
2023-09-07T07:14:28.790Z,41.46
2023-09-07T07:16:31.754Z,40.91
2023-09-07T07:18:34.534Z,40.42
2023-09-07T07:20:41.408Z,40.53
2023-09-07T07:22:44.483Z,40.95
2023-09-07T07:24:49.923Z,39.49
2023-09-07T07:26:56.004Z,39.46
2023-09-07T07:28:58.431Z,40.19
2023-09-07T07:31:10.496Z,39.88
2023-09-07T07:33:14.452Z,40.14
2023-09-07T07:35:17.291Z,40.18
2023-09-07T07:37:19.654Z,38.99
2023-09-07T07:39:22.195Z,39.61
2023-09-07T07:41:24.830Z,39.23
2023-09-07T07:43:27.683Z,39.09
2023-09-07T07:45:30.359Z,39.63
2023-09-07T07:47:33.667Z,39.83
2023-09-07T07:49:37.455Z,39.93
2023-09-07T07:51:40.430Z,39.83
2023-09-07T07:53:43.208Z,39.57
2023-09-07T07:55:47.709Z,40.22
2023-09-07T07:57:53.552Z,40.65
2023-09-07T07:59:57.744Z,39.95
2023-09-07T08:02:01.803Z,40.79
2023-09-07T08:04:05.102Z,40.40
2023-09-07T08:06:08.991Z,40.32
2023-09-07T08:08:11.527Z,40.32
2023-09-07T08:10:14.223Z,40.78
2023-09-07T08:12:16.886Z,41.28
2023-09-07T08:14:19.501Z,40.25
2023-09-07T08:16:22.028Z,41.02
2023-09-07T08:18:25.862Z,40.77
2023-09-07T08:20:29.065Z,38.94
2023-09-07T08:22:33.446Z,38.61
2023-09-07T08:24:35.879Z,39.13
2023-09-07T08:26:40.629Z,39.36
2023-09-07T08:28:47.885Z,39.23
2023-09-07T08:30:54.939Z,39.58
2023-09-07T08:32:57.626Z,38.47
2023-09-07T08:35:02.437Z,38.34
2023-09-07T08:37:06.829Z,37.90
2023-09-07T08:39:11.758Z,37.47
2023-09-07T08:41:15.414Z,37.04
2023-09-07T08:43:20.459Z,37.39
2023-09-07T08:45:27.505Z,37.52
2023-09-07T08:47:32.992Z,37.55
2023-09-07T08:49:35.564Z,36.66
2023-09-07T08:51:38.989Z,36.54
2023-09-07T08:53:42.571Z,36.51
2023-09-07T08:55:45.472Z,36.72
2023-09-07T08:57:48.254Z,36.78
2023-09-07T08:59:50.992Z,35.90
2023-09-07T09:01:58.188Z,35.76
2023-09-07T09:04:01.021Z,36.37
2023-09-07T09:06:05.705Z,36.12
2023-09-07T09:08:11.332Z,36.42
2023-09-07T09:10:14.396Z,36.32
2023-09-07T09:12:17.112Z,35.64
2023-09-07T09:14:26.019Z,35.80
2023-09-07T09:16:28.534Z,36.52
2023-09-07T09:18:31.637Z,36.49
2023-09-07T09:20:34.519Z,35.98
2023-09-07T09:22:37.436Z,36.09
2023-09-07T09:24:40.113Z,36.03
2023-09-07T09:26:42.713Z,35.97
2023-09-07T09:28:49.172Z,35.64
2023-09-07T09:30:52.224Z,35.40
2023-09-07T09:32:55.465Z,34.78
2023-09-07T09:34:58.720Z,34.29
2023-09-07T09:37:01.614Z,34.22
2023-09-07T09:39:07.180Z,34.38
2023-09-07T09:41:11.116Z,33.82
2023-09-07T09:43:14.557Z,33.77
2023-09-07T09:45:17.390Z,33.47
2023-09-07T09:47:21.595Z,33.74
2023-09-07T09:49:24.795Z,33.56
2023-09-07T09:51:29.113Z,33.84
2023-09-07T09:53:33.008Z,33.48
2023-09-07T09:55:36.303Z,33.94
2023-09-07T09:57:38.916Z,33.59
2023-09-07T09:59:41.408Z,33.58
2023-09-07T10:01:48.692Z,33.26
2023-09-07T10:03:53.077Z,33.46
2023-09-07T10:05:55.869Z,32.93
2023-09-07T10:08:06.894Z,32.63
2023-09-07T10:10:12.535Z,33.02
2023-09-07T10:12:17.411Z,32.79
2023-09-07T10:14:20.758Z,32.74
2023-09-07T10:16:23.295Z,32.60
2023-09-07T10:18:36.368Z,32.82
2023-09-07T10:20:54.422Z,33.11
2023-09-07T10:23:06.279Z,31.86
2023-09-07T10:25:20.491Z,32.17
2023-09-07T10:27:22.850Z,32.54
2023-09-07T10:29:27.243Z,32.59
2023-09-07T10:31:44.218Z,32.15
2023-09-07T10:33:54.368Z,32.15
2023-09-07T10:35:57.987Z,32.00
2023-09-07T10:38:02.516Z,31.82
2023-09-07T10:40:07.100Z,31.27
2023-09-07T10:42:09.497Z,31.45
2023-09-07T10:44:12.310Z,30.96
2023-09-07T10:46:14.953Z,30.81
2023-09-07T10:48:18.866Z,31.09
2023-09-07T10:50:21.564Z,30.96
2023-09-07T10:52:24.138Z,30.67
2023-09-07T10:54:27.502Z,30.58
2023-09-07T10:56:30.076Z,31.03
2023-09-07T10:58:40.046Z,30.60
2023-09-07T11:00:42.560Z,31.02
2023-09-07T11:02:45.404Z,30.49
2023-09-07T11:04:48.018Z,30.04
2023-09-07T11:06:51.589Z,29.95
2023-09-07T11:08:54.165Z,29.55
2023-09-07T11:10:56.670Z,29.87
2023-09-07T11:13:02.852Z,29.32
2023-09-07T11:15:06.024Z,29.86
2023-09-07T11:17:08.616Z,29.25
2023-09-07T11:19:11.394Z,29.61
2023-09-07T11:21:13.922Z,28.85
2023-09-07T11:23:16.534Z,27.99
2023-09-07T11:25:18.952Z,27.94
2023-09-07T11:27:23.411Z,27.98
2023-09-07T11:29:26.666Z,28.08
2023-09-07T11:31:29.305Z,27.88
2023-09-07T11:33:35.742Z,25.51
2023-09-07T11:35:38.297Z,26.13
2023-09-07T11:37:41.854Z,25.71
2023-09-07T11:39:44.809Z,25.77
2023-09-07T11:41:47.456Z,23.85
2023-09-07T11:43:49.805Z,24.83
2023-09-07T11:45:52.362Z,25.52
2023-09-07T11:47:54.977Z,24.85
2023-09-07T11:49:57.471Z,24.36
2023-09-07T11:52:00.356Z,24.76
2023-09-07T11:54:06.537Z,24.68
2023-09-07T11:56:09.390Z,25.22
2023-09-07T11:58:11.843Z,25.46
2023-09-07T12:00:16.077Z,25.55
2023-09-07T12:02:19.102Z,25.03
2023-09-07T12:04:21.699Z,25.44
2023-09-07T12:06:25.272Z,25.39
2023-09-07T12:08:27.767Z,25.43
2023-09-07T12:10:30.278Z,25.54
2023-09-07T12:12:32.719Z,25.14
2023-09-07T12:14:35.199Z,25.73
2023-09-07T12:16:37.848Z,25.14
2023-09-07T12:18:40.492Z,24.93
2023-09-07T12:20:44.552Z,25.17
2023-09-07T12:22:47.076Z,25.03
2023-09-07T12:25:02.274Z,25.25
2023-09-07T12:27:12.957Z,24.77
2023-09-07T12:29:15.482Z,24.52
2023-09-07T12:31:18.225Z,25.03
2023-09-07T12:33:20.637Z,25.22
2023-09-07T12:35:23.233Z,25.42
2023-09-07T12:37:26.197Z,24.87
2023-09-07T12:39:28.617Z,25.08
2023-09-07T12:41:32.231Z,25.17
2023-09-07T12:43:35.407Z,25.54
2023-09-07T12:45:38.266Z,24.91
2023-09-07T12:47:41.485Z,24.90
2023-09-07T12:49:44.070Z,24.87
2023-09-07T12:51:49.461Z,24.56
2023-09-07T12:53:52.697Z,24.83
2023-09-07T12:55:55.533Z,24.48
2023-09-07T12:57:58.135Z,24.83
2023-09-07T13:00:01.081Z,24.87
2023-09-07T13:02:03.934Z,24.38
2023-09-07T13:04:06.610Z,24.84
2023-09-07T13:06:08.956Z,24.71
2023-09-07T13:08:12.055Z,24.95
2023-09-07T13:10:14.428Z,24.83
2023-09-07T13:12:17.098Z,24.61
2023-09-07T13:14:19.497Z,24.69
2023-09-07T13:16:21.907Z,24.77
2023-09-07T13:18:24.756Z,24.56
2023-09-07T13:20:28.147Z,24.91
2023-09-07T13:22:31.025Z,24.02
2023-09-07T13:24:33.483Z,24.59
2023-09-07T13:26:35.939Z,24.22
2023-09-07T13:28:38.489Z,24.77
2023-09-07T13:30:40.997Z,24.69
2023-09-07T13:32:43.380Z,23.08
2023-09-07T13:34:45.720Z,24.08
2023-09-07T13:36:48.244Z,24.12
2023-09-07T13:38:52.902Z,24.31
2023-09-07T13:40:55.872Z,24.05
2023-09-07T13:42:58.556Z,23.94
2023-09-07T13:45:00.945Z,24.49
2023-09-07T13:47:03.824Z,24.73
2023-09-07T13:49:06.376Z,24.35
2023-09-07T13:51:08.964Z,24.10
2023-09-07T13:53:11.474Z,24.41
2023-09-07T13:55:14.321Z,24.29
2023-09-07T13:57:16.823Z,24.29
2023-09-07T13:59:19.091Z,24.56
2023-09-07T14:01:22.785Z,24.25
2023-09-07T14:03:25.170Z,24.55
2023-09-07T14:05:27.586Z,23.91
2023-09-07T14:07:29.968Z,23.80
2023-09-07T14:09:32.437Z,24.00
2023-09-07T14:11:34.979Z,24.11
2023-09-07T14:13:37.573Z,24.23
2023-09-07T14:15:40.029Z,23.69
2023-09-07T14:17:42.572Z,24.02
2023-09-07T14:19:46.849Z,23.86
2023-09-07T14:21:49.334Z,23.92
2023-09-07T14:23:51.615Z,23.31
2023-09-07T14:25:54.845Z,23.45
2023-09-07T14:27:57.288Z,23.40
2023-09-07T14:29:59.760Z,23.61
2023-09-07T14:32:02.298Z,23.83
2023-09-07T14:34:04.802Z,23.69
2023-09-07T14:36:08.333Z,24.18
2023-09-07T14:38:10.868Z,24.17
2023-09-07T14:40:14.937Z,24.26
2023-09-07T14:42:18.524Z,24.44
2023-09-07T14:44:21.738Z,24.60
2023-09-07T14:46:26.209Z,24.91
2023-09-07T14:48:28.703Z,25.09
2023-09-07T14:50:31.062Z,25.00
2023-09-07T14:52:38.489Z,25.17
2023-09-07T14:54:42.649Z,25.30
2023-09-07T14:56:45.179Z,25.26
2023-09-07T14:58:47.809Z,25.51
2023-09-07T15:00:50.267Z,25.26
2023-09-07T15:02:52.760Z,25.20
2023-09-07T15:04:55.156Z,25.17
2023-09-07T15:06:57.668Z,24.98
2023-09-07T15:09:00.040Z,25.24
2023-09-07T15:11:02.512Z,25.26
2023-09-07T15:13:05.220Z,24.98
2023-09-07T15:15:08.570Z,25.20
2023-09-07T15:17:11.091Z,25.45
2023-09-07T15:19:13.457Z,25.22
2023-09-07T15:21:15.814Z,25.55
2023-09-07T15:23:18.255Z,25.24
2023-09-07T15:25:20.599Z,25.54
2023-09-07T15:27:23.063Z,25.61
2023-09-07T15:29:25.926Z,25.66
2023-09-07T15:31:28.396Z,26.11
2023-09-07T15:33:31.548Z,26.39
2023-09-07T15:35:34.104Z,26.28
2023-09-07T15:37:36.932Z,26.44
2023-09-07T15:39:39.364Z,26.30
2023-09-07T15:41:41.846Z,26.42
2023-09-07T15:43:45.007Z,26.44
2023-09-07T15:45:47.624Z,26.47
2023-09-07T15:47:50.542Z,26.44
2023-09-07T15:49:53.929Z,26.53
2023-09-07T15:51:56.319Z,26.55
2023-09-07T15:53:58.899Z,26.74
2023-09-07T15:56:02.431Z,26.47
2023-09-07T15:58:05.058Z,26.71
2023-09-07T16:00:08.620Z,26.83
2023-09-07T16:02:14.879Z,26.75
2023-09-07T16:04:17.579Z,26.85
2023-09-07T16:06:20.204Z,26.84
2023-09-07T16:08:23.060Z,27.05
2023-09-07T16:10:28.603Z,26.88
2023-09-07T16:12:31.462Z,26.80
2023-09-07T16:14:33.981Z,26.93
2023-09-07T16:16:36.389Z,26.85
2023-09-07T16:18:38.825Z,26.88
2023-09-07T16:20:41.351Z,26.65
2023-09-07T16:22:43.786Z,26.96
2023-09-07T16:24:46.155Z,26.86
2023-09-07T16:26:48.629Z,26.94
2023-09-07T16:28:50.917Z,27.32
2023-09-07T16:30:53.499Z,26.92
2023-09-07T16:32:56.171Z,27.08
2023-09-07T16:34:58.614Z,27.19
2023-09-07T16:37:01.015Z,26.94
2023-09-07T16:39:03.582Z,27.09
2023-09-07T16:41:07.435Z,27.23
2023-09-07T16:43:09.868Z,27.14
2023-09-07T16:45:12.209Z,27.29
2023-09-07T16:47:14.595Z,27.52
2023-09-07T16:49:17.950Z,27.83
2023-09-07T16:51:20.483Z,27.95
2023-09-07T16:53:23.077Z,27.89
2023-09-07T16:55:25.780Z,27.56
2023-09-07T16:57:33.413Z,27.56
2023-09-07T17:01:41.388Z,27.75
2023-09-07T17:03:44.038Z,27.93
2023-09-07T17:05:46.733Z,28.45
2023-09-07T17:07:49.167Z,28.20
2023-09-07T17:09:52.223Z,29.00
2023-09-07T17:11:54.565Z,28.78
2023-09-07T17:14:02.448Z,28.79
2023-09-07T17:16:05.541Z,28.78
2023-09-07T17:18:07.974Z,28.49
2023-09-07T17:20:10.829Z,28.51
2023-09-07T17:22:14.873Z,28.73
2023-09-07T17:24:17.251Z,28.90
2023-09-07T17:26:19.772Z,28.92
2023-09-07T17:28:22.247Z,29.05
2023-09-07T17:30:25.945Z,29.19
2023-09-07T17:32:29.814Z,29.02
2023-09-07T17:34:35.977Z,28.93
2023-09-07T17:36:38.247Z,29.11
2023-09-07T17:38:40.967Z,29.13
2023-09-07T17:40:43.320Z,29.05
2023-09-07T17:42:45.820Z,29.31
2023-09-07T17:44:48.139Z,29.00
2023-09-07T17:46:50.793Z,29.34
2023-09-07T17:48:53.405Z,29.30
2023-09-07T17:50:56.117Z,29.36
2023-09-07T17:52:58.568Z,29.44
2023-09-07T17:55:01.010Z,29.25
2023-09-07T17:57:03.569Z,29.75
2023-09-07T17:59:06.058Z,29.65
2023-09-07T18:01:13.696Z,29.88
2023-09-07T18:03:16.283Z,29.66
2023-09-07T18:05:22.499Z,29.63
2023-09-07T18:07:25.595Z,29.62
2023-09-07T18:09:28.009Z,29.58
2023-09-07T18:11:30.495Z,29.64
2023-09-07T18:13:33.145Z,29.58
2023-09-07T18:15:35.586Z,30.00
2023-09-07T18:17:41.264Z,29.70
2023-09-07T18:19:46.040Z,29.95
2023-09-07T18:21:48.417Z,29.77
2023-09-07T18:23:50.847Z,30.45
2023-09-07T18:25:53.231Z,30.77
2023-09-07T18:27:55.624Z,31.16
2023-09-07T18:30:01.710Z,31.07
2023-09-07T18:32:04.693Z,30.97
2023-09-07T18:34:08.236Z,31.03
2023-09-07T18:36:11.705Z,30.83
2023-09-07T18:38:14.351Z,30.69
2023-09-07T18:40:16.772Z,30.97
2023-09-07T18:42:19.321Z,31.36
2023-09-07T18:44:21.712Z,31.64
2023-09-07T18:46:25.127Z,31.50
2023-09-07T18:48:27.580Z,32.35
2023-09-07T18:50:30.005Z,32.25
2023-09-07T18:52:34.912Z,33.09
2023-09-07T18:54:37.551Z,33.27
2023-09-07T18:56:40.788Z,34.08
2023-09-07T18:58:43.328Z,34.20
2023-09-07T19:00:48.626Z,34.89
2023-09-07T19:02:51.551Z,34.34
2023-09-07T19:04:54.152Z,34.24
2023-09-07T19:06:56.882Z,34.27
2023-09-07T19:09:00.253Z,34.17
2023-09-07T19:11:03.100Z,34.49
2023-09-07T19:13:05.864Z,33.81
2023-09-07T19:15:08.682Z,33.99
2023-09-07T19:17:12.103Z,34.12
2023-09-07T19:19:14.618Z,34.07
2023-09-07T19:21:24.660Z,34.32
2023-09-07T19:23:27.367Z,34.27
2023-09-07T19:25:31.955Z,33.78
2023-09-07T19:27:35.673Z,34.07
2023-09-07T19:29:41.329Z,34.13
2023-09-07T19:31:43.987Z,34.03
2023-09-07T19:33:50.759Z,34.26
2023-09-07T19:35:53.131Z,34.68
2023-09-07T19:37:55.542Z,34.11
2023-09-07T19:39:58.048Z,34.30
2023-09-07T19:42:00.457Z,34.73
2023-09-07T19:44:03.693Z,34.18
2023-09-07T19:46:06.195Z,34.03
2023-09-07T19:48:08.798Z,34.37
2023-09-07T19:50:11.948Z,33.79
2023-09-07T19:52:14.371Z,34.16
2023-09-07T19:54:16.880Z,34.09
2023-09-07T19:56:25.294Z,33.94
2023-09-07T19:58:27.873Z,34.38
2023-09-07T20:00:30.281Z,34.12
2023-09-07T20:02:32.838Z,34.44
2023-09-07T20:04:35.309Z,34.30
2023-09-07T20:06:37.803Z,34.50
2023-09-07T20:08:41.397Z,34.61
2023-09-07T20:10:44.391Z,34.80
2023-09-07T20:12:47.113Z,34.46
2023-09-07T20:14:50.255Z,34.80
2023-09-07T20:16:52.699Z,34.63
2023-09-07T20:18:55.378Z,34.86
2023-09-07T20:20:57.754Z,34.93
2023-09-07T20:23:01.316Z,34.99
2023-09-07T20:25:04.796Z,34.88
2023-09-07T20:27:07.381Z,34.68
2023-09-07T20:29:10.159Z,34.79
2023-09-07T20:31:12.794Z,34.47
2023-09-07T20:33:16.200Z,34.88
2023-09-07T20:35:19.617Z,34.59
2023-09-07T20:37:22.085Z,34.33
2023-09-07T20:39:24.966Z,34.46
2023-09-07T20:41:27.768Z,34.51
2023-09-07T20:43:30.530Z,34.39
2023-09-07T20:45:33.083Z,34.92
2023-09-07T20:47:35.648Z,35.18
2023-09-07T20:49:38.561Z,34.99
2023-09-07T20:51:41.705Z,35.13
2023-09-07T20:53:44.124Z,34.60
2023-09-07T20:55:46.531Z,34.72
2023-09-07T20:57:50.283Z,34.80
2023-09-07T20:59:54.191Z,34.89
2023-09-07T21:01:56.571Z,34.82
2023-09-07T21:03:59.207Z,34.94
2023-09-07T21:06:01.909Z,34.76
2023-09-07T21:08:07.549Z,35.01
2023-09-07T21:10:12.280Z,34.85
2023-09-07T21:12:14.633Z,34.98
2023-09-07T21:14:17.200Z,34.94
2023-09-07T21:16:19.559Z,34.97
2023-09-07T21:18:22.059Z,35.08
2023-09-07T21:20:24.560Z,34.80
2023-09-07T21:22:29.928Z,34.96
2023-09-07T21:24:32.367Z,35.07
2023-09-07T21:26:34.758Z,34.92
2023-09-07T21:28:37.165Z,35.09
2023-09-07T21:30:39.710Z,35.00
2023-09-07T21:32:42.115Z,34.92
2023-09-07T21:34:44.705Z,35.21
2023-09-07T21:36:47.244Z,35.38
2023-09-07T21:38:49.793Z,35.10
2023-09-07T21:40:52.878Z,35.42
2023-09-07T21:42:56.576Z,35.14
2023-09-07T21:45:00.928Z,35.56
2023-09-07T21:47:03.453Z,35.48
2023-09-07T21:49:05.969Z,35.38
2023-09-07T21:51:08.804Z,35.51
2023-09-07T21:53:11.587Z,35.76
2023-09-07T21:55:14.181Z,35.98
2023-09-07T21:57:18.228Z,36.62
2023-09-07T21:59:20.681Z,36.64
2023-09-07T22:01:23.293Z,36.90
2023-09-07T22:03:25.690Z,37.85
2023-09-07T22:05:28.940Z,38.41
2023-09-07T22:07:31.393Z,38.49
2023-09-07T22:09:33.830Z,39.65
2023-09-07T22:11:36.266Z,38.88
2023-09-07T22:13:38.677Z,39.19
2023-09-07T22:15:41.043Z,39.98
2023-09-07T22:17:44.653Z,39.55
2023-09-07T22:19:47.051Z,39.13
2023-09-07T22:21:49.517Z,38.95
2023-09-07T22:23:52.213Z,39.49
2023-09-07T22:25:54.639Z,39.54
2023-09-07T22:27:57.088Z,39.49
2023-09-07T22:29:59.510Z,39.24
2023-09-07T22:32:02.700Z,38.54
2023-09-07T22:34:05.047Z,38.52
2023-09-07T22:36:07.612Z,38.23
2023-09-07T22:38:09.912Z,38.33
2023-09-07T22:40:17.064Z,38.29
2023-09-07T22:42:19.399Z,41.50
2023-09-07T22:44:21.781Z,41.44
2023-09-07T22:46:24.280Z,41.74
2023-09-07T22:48:26.619Z,41.78
2023-09-07T22:50:29.309Z,42.08
2023-09-07T22:52:31.638Z,41.36
2023-09-07T22:54:34.048Z,41.11
2023-09-07T22:56:36.470Z,40.21
2023-09-07T22:58:41.416Z,40.15
2023-09-07T23:00:44.849Z,39.58
2023-09-07T23:02:47.277Z,39.85
2023-09-07T23:04:49.783Z,39.22
2023-09-07T23:06:52.286Z,39.51
2023-09-07T23:08:54.945Z,39.55
2023-09-07T23:10:57.458Z,39.33
2023-09-07T23:12:59.934Z,39.22
2023-09-07T23:15:02.613Z,39.40
2023-09-07T23:17:05.069Z,38.95
2023-09-07T23:19:07.541Z,38.82
2023-09-07T23:21:10.112Z,39.26
2023-09-07T23:23:12.485Z,39.23
2023-09-07T23:25:14.944Z,39.51
2023-09-07T23:27:17.879Z,39.14
2023-09-07T23:29:20.285Z,38.91
2023-09-07T23:31:23.454Z,38.82
2023-09-07T23:33:26.771Z,39.04
2023-09-07T23:35:30.588Z,38.85
2023-09-07T23:37:34.680Z,38.98
2023-09-07T23:39:37.576Z,38.99
2023-09-07T23:41:40.099Z,38.61
2023-09-07T23:43:42.859Z,38.87
2023-09-07T23:45:45.208Z,39.16
2023-09-07T23:47:47.560Z,39.40
2023-09-07T23:49:50.235Z,39.52
2023-09-07T23:51:52.709Z,39.15
2023-09-07T23:53:56.940Z,39.02
2023-09-07T23:56:00.066Z,39.43
2023-09-07T23:58:02.534Z,39.45
